Time;durP1;ratioP1;P1;durP2;ratioP2;P2;SDS_P1;SDS_P2;PMS_P1;PMS_P2;Temp;Humidity;BMP_temperature;BMP_pressure;BME280_temperature;BME280_humidity;BME280_pressure;Samples;Min_cycle;Max_cycle;Signal;HPM_P1;HPM_P2
2021/11/02 00:01:03;;;;;;;;;;;23.70;50.00;;;;;;1540963;75;738;-71
2021/11/02 00:03:05;;;;;;;;;;;23.80;50.00;;;;;;1563418;75;1134;-72
2021/11/02 00:05:07;;;;;;;;;;;23.80;50.00;;;;;;1539773;76;660;-72
2021/11/02 00:07:09;;;;;;;;;;;23.80;50.00;;;;;;1551351;76;772;-71
2021/11/02 00:09:12;;;;;;;;;;;23.80;50.00;;;;;;1567483;76;700;-71
2021/11/02 00:11:15;;;;;;;;;;;23.80;50.00;;;;;;1565784;76;1924;-71
2021/11/02 00:13:18;;;;;;;;;;;23.80;50.00;;;;;;1555251;76;1174;-71
2021/11/02 00:15:23;;;;;;;;;;;23.80;50.00;;;;;;1566275;75;711;-71
2021/11/02 00:17:28;;;;;;;;;;;23.80;50.00;;;;;;1564247;76;703;-71
2021/11/02 00:19:29;;;;;;;;;;;23.70;50.00;;;;;;1557237;74;1136;-71
2021/11/02 00:21:35;;;;;;;;;;;23.70;50.00;;;;;;1556845;76;628;-71
2021/11/02 00:23:37;;;;;;;;;;;23.80;50.00;;;;;;1568223;74;1029;-71
2021/11/02 00:25:39;;;;;;;;;;;23.70;50.00;;;;;;1567522;76;689;-71
2021/11/02 00:27:41;;;;;;;;;;;23.70;50.00;;;;;;1565527;76;634;-71
2021/11/02 00:29:43;;;;;;;;;;;23.80;50.10;;;;;;1563801;76;749;-72
2021/11/02 00:31:45;;;;;;;;;;;23.70;50.10;;;;;;1547853;75;1099;-72
2021/11/02 00:33:47;;;;;;;;;;;23.70;50.10;;;;;;1551549;75;624;-72
2021/11/02 00:35:49;;;;;;;;;;;23.70;50.10;;;;;;1561783;75;960;-72
2021/11/02 00:37:51;;;;;;;;;;;23.70;50.20;;;;;;1558074;76;741;-72
2021/11/02 00:39:53;;;;;;;;;;;23.70;50.20;;;;;;1561738;76;705;-72
2021/11/02 00:41:55;;;;;;;;;;;23.70;50.20;;;;;;1564028;76;1118;-72
2021/11/02 00:43:57;;;;;;;;;;;23.70;50.20;;;;;;1568104;76;710;-72
2021/11/02 00:45:59;;;;;;;;;;;23.70;50.20;;;;;;1558388;75;714;-70
2021/11/02 00:48:01;;;;;;;;;;;23.70;50.20;;;;;;1559186;76;724;-72
2021/11/02 00:50:09;;;;;;;;;;;23.70;50.20;;;;;;1557106;76;1933;-71
2021/11/02 00:52:07;;;;;;;;;;;23.80;50.20;;;;;;1557942;74;1132;-72
2021/11/02 00:54:09;;;;;;;;;;;23.70;50.20;;;;;;1566009;76;708;-73
2021/11/02 00:56:11;;;;;;;;;;;23.70;50.30;;;;;;1561349;75;674;-72
2021/11/02 00:58:13;;;;;;;;;;;23.70;50.20;;;;;;1554296;75;738;-72
2021/11/02 01:00:15;;;;;;;;;;;23.80;50.20;;;;;;1551930;76;738;-72
2021/11/02 01:02:18;;;;;;;;;;;23.70;50.20;;;;;;1561189;76;1119;-75
2021/11/02 01:04:20;;;;;;;;;;;23.70;50.20;;;;;;1569115;76;729;-72
2021/11/02 01:06:22;;;;;;;;;;;23.70;50.20;;;;;;1557626;76;697;-73
2021/11/02 01:08:24;;;;;;;;;;;23.70;50.20;;;;;;1561148;75;666;-72
2021/11/02 01:10:26;;;;;;;;;;;23.80;50.20;;;;;;1568674;76;1936;-72
2021/11/02 01:12:28;;;;;;;;;;;23.70;50.20;;;;;;1544386;74;1452;-72
2021/11/02 01:14:30;;;;;;;;;;;23.80;50.20;;;;;;1551645;74;648;-69
2021/11/02 01:16:34;;;;;;;;;;;23.70;50.20;;;;;;1552789;74;742;-69
2021/11/02 01:18:35;;;;;;;;;;;23.70;50.20;;;;;;1555217;74;1509;-70
2021/11/02 01:20:38;;;;;;;;;;;23.80;50.20;;;;;;1550539;74;732;-67
2021/11/02 01:22:41;;;;;;;;;;;23.70;50.10;;;;;;1560916;73;1154;-70
2021/11/02 01:24:43;;;;;;;;;;;23.70;50.20;;;;;;1555400;74;760;-71
2021/11/02 01:26:44;;;;;;;;;;;23.70;50.10;;;;;;1555682;74;699;-72
2021/11/02 01:28:46;;;;;;;;;;;23.70;50.10;;;;;;1546349;74;733;-69
2021/11/02 01:30:48;;;;;;;;;;;23.70;50.00;;;;;;1551361;74;1943;-69
2021/11/02 01:32:50;;;;;;;;;;;23.70;49.90;;;;;;1549584;74;1150;-69
2021/11/02 01:34:52;;;;;;;;;;;23.70;49.90;;;;;;1547419;74;723;-69
2021/11/02 01:36:55;;;;;;;;;;;23.70;49.90;;;;;;1553554;74;774;-69
2021/11/02 01:38:56;;;;;;;;;;;23.70;49.90;;;;;;1544429;74;716;-70
2021/11/02 01:40:58;;;;;;;;;;;23.70;50.00;;;;;;1548507;74;699;-70
2021/11/02 01:43:00;;;;;;;;;;;23.70;50.00;;;;;;1549081;74;1121;-70
2021/11/02 01:45:03;;;;;;;;;;;23.60;49.80;;;;;;1548827;74;732;-70
2021/11/02 01:47:05;;;;;;;;;;;23.70;50.10;;;;;;1550689;74;708;-69
2021/11/02 01:49:07;;;;;;;;;;;23.70;50.00;;;;;;1546277;74;788;-68
2021/11/02 01:51:09;;;;;;;;;;;23.70;50.10;;;;;;1545971;74;1943;-68
2021/11/02 01:53:11;;;;;;;;;;;23.70;50.10;;;;;;1547117;75;1146;-69
2021/11/02 01:55:13;;;;;;;;;;;23.70;50.10;;;;;;1546487;74;629;-71
2021/11/02 01:57:15;;;;;;;;;;;23.60;49.90;;;;;;1542318;74;688;-71
2021/11/02 01:59:21;;;;;;;;;;;23.70;50.10;;;;;;1551177;74;719;-69
2021/11/02 02:01:25;;;;;;;;;;;23.60;50.00;;;;;;1545598;75;1020;-72
2021/11/02 02:03:41;;;;;;;;;;;23.70;50.10;;;;;;1552822;74;1065;-70
2021/11/02 02:05:53;;;;;;;;;;;23.60;50.00;;;;;;1550783;74;732;-72
2021/11/02 02:08:01;;;;;;;;;;;23.60;49.90;;;;;;1550464;74;728;-70
2021/11/02 02:10:21;;;;;;;;;;;23.70;50.00;;;;;;1543763;74;866;-69
2021/11/02 02:12:30;;;;;;;;;;;23.70;50.00;;;;;;1546079;74;1078;-70
2021/11/02 02:14:39;;;;;;;;;;;23.60;49.80;;;;;;1549218;75;1355;-70
2021/11/02 02:16:42;;;;;;;;;;;23.60;49.70;;;;;;1549044;74;771;-69
2021/11/02 02:18:45;;;;;;;;;;;23.60;49.70;;;;;;1555918;74;791;-75
2021/11/02 02:21:04;;;;;;;;;;;23.70;49.70;;;;;;1547696;74;1797;-71
2021/11/02 02:23:13;;;;;;;;;;;23.60;49.60;;;;;;1553122;72;2099;-64
2021/11/02 02:25:33;;;;;;;;;;;23.60;49.70;;;;;;1556773;75;757;-73
2021/11/02 02:27:53;;;;;;;;;;;23.70;49.80;;;;;;1548807;74;765;-68
2021/11/02 02:29:55;;;;;;;;;;;23.60;49.70;;;;;;1553192;74;738;-69
2021/11/02 02:31:57;;;;;;;;;;;23.60;49.70;;;;;;1553835;74;1941;-68
2021/11/02 02:33:59;;;;;;;;;;;23.60;49.80;;;;;;1560695;75;792;-68
2021/11/02 02:36:01;;;;;;;;;;;23.60;49.80;;;;;;1551344;75;735;-68
2021/11/02 02:38:03;;;;;;;;;;;23.60;49.80;;;;;;1555164;75;731;-68
2021/11/02 02:40:06;;;;;;;;;;;23.60;49.70;;;;;;1554194;75;740;-70
2021/11/02 02:42:08;;;;;;;;;;;23.60;49.80;;;;;;1565367;75;1141;-69
2021/11/02 02:44:10;;;;;;;;;;;23.60;49.80;;;;;;1549880;75;684;-70
2021/11/02 02:46:12;;;;;;;;;;;23.60;49.70;;;;;;1553508;75;720;-67
2021/11/02 02:48:14;;;;;;;;;;;23.60;49.70;;;;;;1548939;75;854;-69
2021/11/02 02:50:16;;;;;;;;;;;23.60;49.70;;;;;;1551333;75;728;-68
2021/11/02 02:52:18;;;;;;;;;;;23.60;49.70;;;;;;1547532;75;1912;-70
2021/11/02 02:54:22;;;;;;;;;;;23.60;49.70;;;;;;1557372;75;662;-71
2021/11/02 02:56:23;;;;;;;;;;;23.60;49.60;;;;;;1555639;75;1216;-69
2021/11/02 02:58:25;;;;;;;;;;;23.50;49.70;;;;;;1554197;75;739;-68
2021/11/02 03:00:27;;;;;;;;;;;23.60;49.70;;;;;;1555470;75;730;-68
2021/11/02 03:02:30;;;;;;;;;;;23.50;49.70;;;;;;1555856;74;1094;-68
2021/11/02 03:04:34;;;;;;;;;;;23.60;49.80;;;;;;1551363;75;776;-69
2021/11/02 03:06:37;;;;;;;;;;;23.60;49.80;;;;;;1554903;75;954;-68
2021/11/02 03:08:39;;;;;;;;;;;23.60;49.80;;;;;;1545748;75;890;-68
2021/11/02 03:10:41;;;;;;;;;;;23.60;49.70;;;;;;1551622;75;1939;-68
2021/11/02 03:12:45;;;;;;;;;;;23.60;49.80;;;;;;1547415;75;1130;-73
2021/11/02 03:17:08;;;;;;;;;;;23.60;49.90;;;;;;1551774;75;817;-72
2021/11/02 03:19:37;;;;;;;;;;;23.60;50.00;;;;;;1553571;75;1669;-77
2021/11/02 03:45:00;;;;;;;;;;;23.60;50.10;;;;;;1560083;76;1650;-73
2021/11/02 03:49:16;;;;;;;;;;;23.70;50.00;;;;;;1550257;76;813;-72
2021/11/02 03:58:13;;;;;;;;;;;23.90;49.90;;;;;;1512688;76;873;-73
2021/11/02 04:00:29;;;;;;;;;;;23.90;49.70;;;;;;1558440;75;1556;-74
2021/11/02 04:23:41;;;;;;;;;;;24.00;49.40;;;;;;1541977;75;1586;-72
2021/11/02 04:28:13;;;;;;;;;;;24.10;49.60;;;;;;1560190;76;733;-72
2021/11/02 04:35:06;;;;;;;;;;;24.10;49.70;;;;;;1563693;76;859;-74
2021/11/02 05:13:31;;;;;;;;;;;23.90;50.00;;;;;;1525621;75;1134;-69
2021/11/02 05:48:07;;;;;;;;;;;23.80;49.60;;;;;;1558517;75;1648;-69
2021/11/02 05:56:59;;;;;;;;;;;23.70;49.50;;;;;;1542739;75;824;-68
2021/11/02 05:58:47;;;;;;;;;;;23.70;49.50;;;;;;1547075;75;1478;-67
2021/11/02 06:03:23;;;;;;;;;;;23.70;49.40;;;;;;1547161;75;1099;-68
2021/11/02 06:07:47;;;;;;;;;;;23.70;49.40;;;;;;1548396;75;1680;-69
2021/11/02 06:09:46;;;;;;;;;;;23.70;49.40;;;;;;1551553;75;1661;-75
2021/11/02 06:28:10;;;;;;;;;;;23.70;48.90;;;;;;1549240;75;692;-73
2021/11/02 06:30:12;;;;;;;;;;;23.70;48.90;;;;;;1551275;75;1885;-70
2021/11/02 06:32:26;;;;;;;;;;;23.70;48.80;;;;;;1550935;75;1916;-70
2021/11/02 06:34:38;;;;;;;;;;;23.70;48.90;;;;;;1551040;75;1496;-70
2021/11/02 06:43:32;;;;;;;;;;;23.70;48.60;;;;;;1486840;75;1136;-70
2021/11/02 06:50:19;;;;;;;;;;;23.70;48.60;;;;;;1545200;75;1889;-70
2021/11/02 06:52:36;;;;;;;;;;;23.70;48.50;;;;;;1542179;75;1928;-70
2021/11/02 06:54:31;;;;;;;;;;;23.70;48.60;;;;;;1547424;75;1409;-71
2021/11/02 06:56:55;;;;;;;;;;;23.60;48.40;;;;;;1553178;75;1750;-70
2021/11/02 07:15:29;;;;;;;;;;;23.60;48.20;;;;;;1551435;76;1627;-70
2021/11/02 07:19:31;;;;;;;;;;;23.70;48.30;;;;;;1547073;76;856;-70
2021/11/02 07:21:47;;;;;;;;;;;23.70;48.20;;;;;;1542774;75;1659;-70
2021/11/02 07:23:49;;;;;;;;;;;23.70;48.20;;;;;;1554319;76;1652;-72
2021/11/02 07:25:59;;;;;;;;;;;23.70;48.10;;;;;;1561790;75;1530;-70
2021/11/02 08:46:58;;;;;;;;;;;23.90;47.60;;;;;;1491047;78;1685;-73
2021/11/02 08:48:57;;;;;;;;;;;23.90;47.60;;;;;;1540548;76;1605;-72
2021/11/02 08:51:00;;;;;;;;;;;23.90;47.50;;;;;;1551368;75;1112;-73
2021/11/02 08:53:02;;;;;;;;;;;23.90;47.50;;;;;;1540826;76;1921;-73
2021/11/02 08:55:05;;;;;;;;;;;23.90;47.40;;;;;;1517069;77;1418;-73
2021/11/02 08:57:07;;;;;;;;;;;24.00;47.30;;;;;;1546893;76;708;-73
2021/11/02 08:59:09;;;;;;;;;;;24.00;48.80;;;;;;1550550;76;770;-73
2021/11/02 09:01:11;;;;;;;;;;;23.90;48.80;;;;;;1551125;75;1081;-73
2021/11/02 09:03:17;;;;;;;;;;;23.80;49.70;;;;;;1552084;76;672;-73
2021/11/02 09:05:25;;;;;;;;;;;23.90;50.10;;;;;;1545320;76;763;-73
2021/11/02 09:07:27;;;;;;;;;;;23.80;51.80;;;;;;1534677;76;722;-73
2021/11/02 09:09:37;;;;;;;;;;;23.80;51.70;;;;;;1550687;76;776;-73
2021/11/02 09:11:40;;;;;;;;;;;23.80;52.70;;;;;;1551134;75;1100;-73
2021/11/02 09:13:43;;;;;;;;;;;23.80;52.30;;;;;;1552261;76;1911;-73
2021/11/02 09:15:46;;;;;;;;;;;23.80;51.90;;;;;;1551700;75;2111;-73
2021/11/02 09:17:48;;;;;;;;;;;23.90;52.50;;;;;;1543910;77;728;-73
2021/11/02 09:19:50;;;;;;;;;;;23.90;51.90;;;;;;1550311;76;750;-72
2021/11/02 09:21:52;;;;;;;;;;;23.90;51.50;;;;;;1550686;75;1116;-73
2021/11/02 09:23:54;;;;;;;;;;;24.10;51.60;;;;;;1550890;76;826;-74
2021/11/02 09:25:57;;;;;;;;;;;24.00;51.50;;;;;;1549248;76;673;-73
2021/11/02 09:27:59;;;;;;;;;;;24.20;51.00;;;;;;1552089;76;627;-73
2021/11/02 09:30:02;;;;;;;;;;;24.30;50.80;;;;;;1551847;76;722;-72
2021/11/02 09:32:04;;;;;;;;;;;24.40;50.30;;;;;;1538387;76;1157;-73
2021/11/02 09:34:06;;;;;;;;;;;24.50;50.10;;;;;;1549916;76;1926;-73
2021/11/02 09:36:08;;;;;;;;;;;24.60;49.90;;;;;;1550221;77;781;-73
2021/11/02 09:38:27;;;;;;;;;;;24.60;49.80;;;;;;1552563;76;676;-74
2021/11/02 09:40:33;;;;;;;;;;;24.50;49.80;;;;;;1541063;76;806;-73
2021/11/02 09:42:44;;;;;;;;;;;24.50;49.70;;;;;;1546748;75;1121;-72
2021/11/02 09:44:54;;;;;;;;;;;24.30;49.50;;;;;;1539933;76;673;-72
2021/11/02 09:47:15;;;;;;;;;;;24.20;49.30;;;;;;1552658;76;833;-72
2021/11/02 09:49:35;;;;;;;;;;;24.10;49.40;;;;;;1538222;76;731;-72
2021/11/02 09:51:41;;;;;;;;;;;24.00;49.20;;;;;;1552105;75;1148;-72
2021/11/02 09:53:49;;;;;;;;;;;24.00;49.00;;;;;;1541626;76;1935;-75
2021/11/02 09:55:59;;;;;;;;;;;24.00;48.90;;;;;;1550869;77;601;-72
2021/11/02 09:58:08;;;;;;;;;;;23.90;48.70;;;;;;1551134;76;705;-72
2021/11/02 10:00:12;;;;;;;;;;;23.90;48.50;;;;;;1539159;77;1936;-73
2021/11/02 10:02:27;;;;;;;;;;;23.90;48.40;;;;;;1547014;76;1126;-71
2021/11/02 10:04:31;;;;;;;;;;;23.90;48.30;;;;;;1547493;76;729;-71
2021/11/02 10:06:45;;;;;;;;;;;23.90;48.10;;;;;;1503566;78;1219;-72
2021/11/02 10:08:49;;;;;;;;;;;23.90;47.90;;;;;;1504853;76;1684;-72
2021/11/02 10:10:53;;;;;;;;;;;23.80;47.70;;;;;;1552452;76;1740;-72
2021/11/02 10:12:59;;;;;;;;;;;23.70;47.50;;;;;;1552825;75;1945;-72
2021/11/02 10:15:07;;;;;;;;;;;23.80;47.40;;;;;;1555779;76;766;-71
2021/11/02 10:17:12;;;;;;;;;;;23.70;47.10;;;;;;1551394;76;777;-72
2021/11/02 10:19:19;;;;;;;;;;;23.70;46.90;;;;;;1549608;77;745;-72
2021/11/02 10:21:23;;;;;;;;;;;23.70;46.70;;;;;;1539481;75;1141;-73
2021/11/02 10:23:29;;;;;;;;;;;23.70;46.20;;;;;;1541528;76;797;-72
2021/11/02 10:25:32;;;;;;;;;;;23.70;46.00;;;;;;1551194;75;739;-75
2021/11/02 10:27:39;;;;;;;;;;;23.60;45.60;;;;;;1546728;76;1815;-72
2021/11/02 10:29:43;;;;;;;;;;;23.60;45.30;;;;;;1544823;76;695;-72
2021/11/02 10:32:00;;;;;;;;;;;23.60;45.20;;;;;;1511224;77;1154;-73
2021/11/02 10:34:03;;;;;;;;;;;23.60;45.20;;;;;;1544554;75;1909;-73
2021/11/02 10:36:13;;;;;;;;;;;23.60;45.20;;;;;;1549367;75;1779;-73
2021/11/02 10:38:19;;;;;;;;;;;23.60;45.10;;;;;;1550810;75;725;-71
2021/11/02 10:40:24;;;;;;;;;;;23.60;45.00;;;;;;1547243;75;1777;-72
2021/11/02 10:42:48;;;;;;;;;;;23.50;44.70;;;;;;1551209;75;1159;-73
2021/11/02 10:44:52;;;;;;;;;;;23.50;44.60;;;;;;1548319;77;2111;-73
2021/11/02 10:46:59;;;;;;;;;;;23.50;44.60;;;;;;1552335;76;1631;-73
2021/11/02 10:49:08;;;;;;;;;;;23.60;44.40;;;;;;1550381;76;758;-73
2021/11/02 10:51:12;;;;;;;;;;;23.50;44.40;;;;;;1544492;75;1832;-73
2021/11/02 10:53:15;;;;;;;;;;;23.60;44.40;;;;;;1546150;75;1929;-72
2021/11/02 10:55:19;;;;;;;;;;;23.50;44.30;;;;;;1533195;75;1024;-73
2021/11/02 10:57:28;;;;;;;;;;;23.60;44.20;;;;;;1542902;75;1946;-72
2021/11/02 10:59:31;;;;;;;;;;;23.70;44.20;;;;;;1540613;76;1925;-71
2021/11/02 11:01:33;;;;;;;;;;;23.70;44.20;;;;;;1551840;75;1154;-72
2021/11/02 11:03:35;;;;;;;;;;;23.70;44.10;;;;;;1542704;77;679;-73
2021/11/02 11:05:37;;;;;;;;;;;23.70;44.10;;;;;;1551101;76;793;-73
2021/11/02 11:07:39;;;;;;;;;;;23.70;44.10;;;;;;1550937;77;719;-74
2021/11/02 11:09:41;;;;;;;;;;;23.60;44.00;;;;;;1550625;76;699;-74
2021/11/02 11:11:45;;;;;;;;;;;23.60;44.00;;;;;;1551453;75;1084;-74
2021/11/02 11:13:47;;;;;;;;;;;23.70;44.00;;;;;;1546566;77;1910;-74
2021/11/02 11:15:49;;;;;;;;;;;23.70;44.00;;;;;;1549497;76;746;-74
2021/11/02 11:17:53;;;;;;;;;;;23.70;43.90;;;;;;1551076;76;741;-74
2021/11/02 11:19:56;;;;;;;;;;;23.70;43.30;;;;;;1546489;76;686;-74
2021/11/02 11:22:01;;;;;;;;;;;23.60;43.20;;;;;;1551315;75;2145;-75
2021/11/02 11:24:08;;;;;;;;;;;23.60;43.30;;;;;;1544479;75;828;-74
2021/11/02 11:26:10;;;;;;;;;;;23.60;43.30;;;;;;1544782;75;731;-74
2021/11/02 11:28:14;;;;;;;;;;;23.60;43.20;;;;;;1535486;75;701;-74
2021/11/02 11:30:16;;;;;;;;;;;23.70;43.20;;;;;;1550512;75;834;-74
2021/11/02 11:32:18;;;;;;;;;;;23.80;43.20;;;;;;1550988;75;1168;-75
2021/11/02 11:34:25;;;;;;;;;;;23.80;43.20;;;;;;1547654;76;1947;-74
2021/11/02 11:36:28;;;;;;;;;;;23.80;43.10;;;;;;1541915;75;1793;-75
2021/11/02 11:38:36;;;;;;;;;;;23.80;43.20;;;;;;1551021;75;704;-75
2021/11/02 11:40:39;;;;;;;;;;;24.00;43.20;;;;;;1544004;75;782;-74
2021/11/02 11:42:41;;;;;;;;;;;24.00;43.20;;;;;;1550601;75;1081;-74
2021/11/02 11:44:44;;;;;;;;;;;24.00;43.20;;;;;;1550164;75;775;-74
2021/11/02 11:46:47;;;;;;;;;;;24.00;43.10;;;;;;1545098;76;1715;-74
2021/11/02 11:48:55;;;;;;;;;;;24.00;43.00;;;;;;1545593;75;729;-74
2021/11/02 11:50:58;;;;;;;;;;;24.00;43.10;;;;;;1552446;76;960;-74
2021/11/02 11:53:02;;;;;;;;;;;23.90;43.10;;;;;;1551805;76;1934;-74
2021/11/02 11:55:04;;;;;;;;;;;23.80;43.20;;;;;;1550001;75;1699;-73
2021/11/02 11:57:06;;;;;;;;;;;23.70;43.40;;;;;;1548805;75;804;-74
2021/11/02 11:59:09;;;;;;;;;;;23.80;43.50;;;;;;1543543;75;662;-74
2021/11/02 12:01:13;;;;;;;;;;;23.80;43.50;;;;;;1536730;75;1168;-74
2021/11/02 12:03:19;;;;;;;;;;;23.80;43.50;;;;;;1550213;77;957;-74
2021/11/02 12:05:21;;;;;;;;;;;23.90;43.60;;;;;;1544949;76;1894;-74
2021/11/02 12:07:25;;;;;;;;;;;23.80;43.50;;;;;;1551083;76;750;-74
2021/11/02 12:09:27;;;;;;;;;;;23.80;43.60;;;;;;1549670;76;1035;-74
2021/11/02 12:11:30;;;;;;;;;;;23.90;43.60;;;;;;1550982;75;1140;-74
2021/11/02 12:13:31;;;;;;;;;;;23.90;43.60;;;;;;1551313;76;1950;-74
2021/11/02 12:15:38;;;;;;;;;;;23.90;43.60;;;;;;1541802;76;1008;-75
2021/11/02 12:17:41;;;;;;;;;;;23.90;43.60;;;;;;1551672;76;691;-75
2021/11/02 12:19:45;;;;;;;;;;;24.00;43.60;;;;;;1554690;75;696;-75
2021/11/02 12:21:51;;;;;;;;;;;23.90;43.60;;;;;;1552123;76;1165;-74
2021/11/02 12:23:53;;;;;;;;;;;23.80;43.60;;;;;;1538929;75;894;-74
2021/11/02 12:25:55;;;;;;;;;;;23.90;43.80;;;;;;1523717;77;1244;-74
2021/11/02 12:27:57;;;;;;;;;;;24.00;43.60;;;;;;1550753;76;775;-75
2021/11/02 12:29:59;;;;;;;;;;;24.00;43.40;;;;;;1552366;76;781;-74
2021/11/02 12:32:02;;;;;;;;;;;24.10;43.60;;;;;;1542860;76;1177;-74
2021/11/02 12:34:14;;;;;;;;;;;24.00;43.40;;;;;;1545019;76;1936;-75
2021/11/02 12:36:20;;;;;;;;;;;24.20;43.50;;;;;;1539806;76;944;-74
2021/11/02 12:38:36;;;;;;;;;;;24.20;43.60;;;;;;1550138;76;938;-74
2021/11/02 12:40:38;;;;;;;;;;;24.10;43.80;;;;;;1539781;77;726;-74
2021/11/02 12:42:42;;;;;;;;;;;24.10;43.90;;;;;;1543734;76;1154;-74
2021/11/02 12:44:44;;;;;;;;;;;24.10;44.00;;;;;;1550908;76;1893;-74
2021/11/02 12:46:46;;;;;;;;;;;24.10;44.00;;;;;;1547334;76;764;-74
2021/11/02 12:48:48;;;;;;;;;;;24.20;44.20;;;;;;1550816;76;606;-74
2021/11/02 12:50:50;;;;;;;;;;;24.20;44.20;;;;;;1535861;76;688;-73
2021/11/02 12:52:52;;;;;;;;;;;24.20;44.00;;;;;;1544605;75;1103;-73
2021/11/02 12:55:10;;;;;;;;;;;24.40;44.10;;;;;;1550750;75;1933;-73
2021/11/02 12:57:12;;;;;;;;;;;24.30;44.10;;;;;;1550431;75;731;-73
2021/11/02 12:59:19;;;;;;;;;;;24.30;44.10;;;;;;1545775;75;667;-73
2021/11/02 13:01:29;;;;;;;;;;;24.40;44.00;;;;;;1549253;75;1137;-73
2021/11/02 13:03:34;;;;;;;;;;;24.30;44.00;;;;;;1546873;75;966;-73
2021/11/02 13:05:36;;;;;;;;;;;24.30;43.90;;;;;;1552171;76;773;-76
2021/11/02 13:07:39;;;;;;;;;;;24.30;43.90;;;;;;1538747;76;803;-74
2021/11/02 13:09:41;;;;;;;;;;;24.40;43.90;;;;;;1549716;76;743;-74
2021/11/02 13:11:43;;;;;;;;;;;24.30;43.80;;;;;;1550048;75;1155;-74
2021/11/02 13:14:03;;;;;;;;;;;24.40;43.80;;;;;;1550782;76;1913;-74
2021/11/02 13:16:05;;;;;;;;;;;24.40;43.80;;;;;;1560708;76;702;-75
2021/11/02 13:18:07;;;;;;;;;;;24.30;43.80;;;;;;1552238;76;541;-74
2021/11/02 13:20:10;;;;;;;;;;;24.40;43.80;;;;;;1550436;76;727;-74
2021/11/02 13:22:13;;;;;;;;;;;24.30;43.80;;;;;;1549836;75;1097;-74
2021/11/02 13:24:22;;;;;;;;;;;24.30;43.90;;;;;;1550867;77;767;-74
2021/11/02 13:26:20;;;;;;;;;;;24.40;43.80;;;;;;1548452;76;1496;-74
2021/11/02 13:28:22;;;;;;;;;;;24.40;43.70;;;;;;1548779;76;746;-74
2021/11/02 13:30:31;;;;;;;;;;;24.50;43.80;;;;;;1513722;78;1114;-73
2021/11/02 13:32:33;;;;;;;;;;;24.60;43.80;;;;;;1551931;75;1174;-73
2021/11/02 13:34:39;;;;;;;;;;;24.50;43.70;;;;;;1538931;76;1932;-75
2021/11/02 13:36:41;;;;;;;;;;;24.50;43.70;;;;;;1542365;77;785;-74
2021/11/02 13:38:43;;;;;;;;;;;24.50;43.70;;;;;;1549468;76;784;-74
2021/11/02 13:40:45;;;;;;;;;;;24.50;43.70;;;;;;1552241;76;776;-74
2021/11/02 13:42:50;;;;;;;;;;;24.50;43.60;;;;;;1551666;75;1109;-73
2021/11/02 13:44:54;;;;;;;;;;;24.50;43.70;;;;;;1542685;76;685;-74
2021/11/02 13:46:56;;;;;;;;;;;24.50;43.70;;;;;;1529804;76;787;-74
2021/11/02 13:48:58;;;;;;;;;;;24.50;43.70;;;;;;1545059;76;735;-74
2021/11/02 13:51:01;;;;;;;;;;;24.50;43.70;;;;;;1550704;75;1136;-74
2021/11/02 13:53:03;;;;;;;;;;;24.50;43.80;;;;;;1551955;76;832;-74
2021/11/02 13:55:05;;;;;;;;;;;24.50;43.80;;;;;;1551107;76;1939;-73
2021/11/02 13:57:07;;;;;;;;;;;24.40;43.70;;;;;;1550907;76;671;-76
2021/11/02 13:59:09;;;;;;;;;;;24.50;43.80;;;;;;1538260;76;743;-75
2021/11/02 14:01:15;;;;;;;;;;;24.40;43.70;;;;;;1550901;75;1140;-79
2021/11/02 14:03:19;;;;;;;;;;;24.50;43.80;;;;;;1515781;77;1682;-76
2021/11/02 14:05:21;;;;;;;;;;;24.40;43.70;;;;;;1545420;77;1667;-73
2021/11/02 14:07:27;;;;;;;;;;;24.40;43.70;;;;;;1549789;76;823;-74
2021/11/02 14:09:29;;;;;;;;;;;24.40;43.80;;;;;;1552055;76;801;-74
2021/11/02 14:11:32;;;;;;;;;;;24.30;43.90;;;;;;1547997;75;1156;-74
2021/11/02 14:13:44;;;;;;;;;;;24.30;44.00;;;;;;1546705;77;726;-73
2021/11/02 14:15:46;;;;;;;;;;;24.20;44.00;;;;;;1556948;75;790;-74
2021/11/02 14:18:06;;;;;;;;;;;24.20;44.20;;;;;;1541766;76;734;-75
2021/11/02 14:20:05;;;;;;;;;;;24.20;44.30;;;;;;1545196;76;1587;-74
2021/11/02 14:22:08;;;;;;;;;;;24.20;44.30;;;;;;1552038;75;1116;-73
2021/11/02 14:24:09;;;;;;;;;;;24.20;44.30;;;;;;1530565;76;763;-74
2021/11/02 14:26:35;;;;;;;;;;;24.20;44.40;;;;;;1546788;75;767;-73
2021/11/02 14:28:34;;;;;;;;;;;24.10;44.50;;;;;;1545318;75;1680;-74
2021/11/02 14:30:38;;;;;;;;;;;24.10;44.60;;;;;;1519785;77;1148;-74
2021/11/02 14:32:41;;;;;;;;;;;24.10;44.50;;;;;;1540422;75;1194;-75
2021/11/02 14:34:46;;;;;;;;;;;24.10;44.60;;;;;;1540858;76;1941;-74
2021/11/02 14:36:48;;;;;;;;;;;24.00;44.40;;;;;;1551368;74;221959;-55
2021/11/02 14:38:50;;;;;;;;;;;24.10;44.60;;;;;;1544743;76;743;-57
2021/11/02 14:40:53;;;;;;;;;;;24.10;44.60;;;;;;1550732;76;768;-56
2021/11/02 14:42:56;;;;;;;;;;;24.00;44.50;;;;;;1542165;76;709;-54
2021/11/02 14:44:58;;;;;;;;;;;24.00;44.50;;;;;;1530127;76;1204;-55
2021/11/02 14:47:02;;;;;;;;;;;24.00;44.50;;;;;;1510327;77;770;-57
2021/11/02 14:49:04;;;;;;;;;;;24.10;44.60;;;;;;1519384;77;741;-55
2021/11/02 14:51:06;;;;;;;;;;;24.10;44.50;;;;;;1511319;77;764;-54
2021/11/02 14:53:13;;;;;;;;;;;24.00;44.40;;;;;;1501199;77;709;-56
2021/11/02 14:55:17;;;;;;;;;;;24.00;44.50;;;;;;1513071;77;1927;-55
2021/11/02 14:57:20;;;;;;;;;;;23.90;44.60;;;;;;1533819;77;801;-55
2021/11/02 14:59:22;;;;;;;;;;;23.90;44.70;;;;;;1506884;77;705;-54
2021/11/02 15:01:30;;;;;;;;;;;23.90;44.70;;;;;;1513411;77;735;-54
2021/11/02 15:03:33;;;;;;;;;;;23.90;44.80;;;;;;1510641;77;708;-54
2021/11/02 15:05:35;;;;;;;;;;;23.90;44.80;;;;;;1510257;77;1139;-56
2021/11/02 15:07:37;;;;;;;;;;;23.90;44.80;;;;;;1513941;77;787;-56
2021/11/02 15:09:39;;;;;;;;;;;23.90;44.80;;;;;;1508350;77;670;-56
2021/11/02 15:11:41;;;;;;;;;;;23.90;44.80;;;;;;1514496;77;665;-54
2021/11/02 15:13:47;;;;;;;;;;;23.90;44.90;;;;;;1502517;77;898;-57
2021/11/02 15:15:49;;;;;;;;;;;23.90;44.90;;;;;;1531567;76;1918;-58
2021/11/02 15:17:53;;;;;;;;;;;23.90;44.80;;;;;;1510712;77;697;-54
2021/11/02 15:19:55;;;;;;;;;;;23.90;44.80;;;;;;1509410;77;1497;-55
2021/11/02 15:22:04;;;;;;;;;;;23.90;44.80;;;;;;1525330;77;638;-55
2021/11/02 15:24:07;;;;;;;;;;;23.90;44.80;;;;;;1519916;77;785;-56
2021/11/02 15:26:10;;;;;;;;;;;24.00;44.80;;;;;;1516425;77;1084;-56
2021/11/02 15:28:12;;;;;;;;;;;24.00;44.70;;;;;;1505471;77;792;-57
2021/11/02 15:30:14;;;;;;;;;;;24.00;44.70;;;;;;1510078;77;826;-55
2021/11/02 15:32:23;;;;;;;;;;;24.10;44.70;;;;;;1522741;77;916;-56
2021/11/02 15:34:26;;;;;;;;;;;24.00;44.50;;;;;;1512013;77;1940;-57
2021/11/02 15:36:28;;;;;;;;;;;24.10;44.60;;;;;;1518696;77;1777;-56
2021/11/02 15:38:30;;;;;;;;;;;24.20;44.50;;;;;;1508406;77;694;-56
2021/11/02 15:40:42;;;;;;;;;;;24.10;43.90;;;;;;1526337;77;747;-54
2021/11/02 15:42:45;;;;;;;;;;;24.00;42.30;;;;;;1511467;77;720;-58
2021/11/02 15:44:46;;;;;;;;;;;23.90;41.70;;;;;;1509481;77;1166;-56
2021/11/02 15:46:48;;;;;;;;;;;23.80;42.50;;;;;;1511986;77;683;-56
2021/11/02 15:48:52;;;;;;;;;;;23.80;42.60;;;;;;1511346;77;1064;-55
2021/11/02 15:50:54;;;;;;;;;;;23.70;42.80;;;;;;1493541;77;1139;-53
2021/11/02 15:53:00;;;;;;;;;;;23.70;42.90;;;;;;1530073;77;730;-55
2021/11/02 15:55:03;;;;;;;;;;;23.70;43.00;;;;;;1511597;77;1927;-58
2021/11/02 15:57:11;;;;;;;;;;;23.70;43.10;;;;;;1524247;77;1918;-55
2021/11/02 15:59:13;;;;;;;;;;;23.80;43.20;;;;;;1501457;77;685;-55
2021/11/02 16:01:17;;;;;;;;;;;23.70;43.30;;;;;;1505374;77;1112;-56
2021/11/02 16:03:18;;;;;;;;;;;23.90;43.20;;;;;;1511792;77;1772;-57
2021/11/02 16:05:21;;;;;;;;;;;24.00;43.10;;;;;;1529369;76;1100;-57
2021/11/02 16:07:25;;;;;;;;;;;24.00;43.00;;;;;;1506331;77;706;-57
2021/11/02 16:09:27;;;;;;;;;;;23.90;43.10;;;;;;1480824;78;1060;-57
2021/11/02 16:11:29;;;;;;;;;;;23.90;43.10;;;;;;1511590;77;722;-59
2021/11/02 16:13:31;;;;;;;;;;;23.90;43.20;;;;;;1511229;77;904;-56
2021/11/02 16:15:34;;;;;;;;;;;23.90;43.40;;;;;;1511780;77;1931;-56
2021/11/02 16:17:43;;;;;;;;;;;23.80;43.40;;;;;;1499664;77;604;-57
2021/11/02 16:19:45;;;;;;;;;;;23.90;43.60;;;;;;1526148;77;816;-58
2021/11/02 16:21:47;;;;;;;;;;;23.90;43.50;;;;;;1516262;77;712;-55
2021/11/02 16:23:49;;;;;;;;;;;24.00;43.40;;;;;;1490458;79;665;-56
2021/11/02 16:25:55;;;;;;;;;;;23.90;43.40;;;;;;1525730;76;1070;-54
2021/11/02 16:27:58;;;;;;;;;;;23.90;43.40;;;;;;1500974;79;692;-54
2021/11/02 16:30:02;;;;;;;;;;;23.90;43.50;;;;;;1524127;77;729;-56
2021/11/02 16:32:18;;;;;;;;;;;23.90;43.60;;;;;;1516843;77;765;-53
2021/11/02 16:34:23;;;;;;;;;;;23.90;43.60;;;;;;1517287;77;1692;-55
2021/11/02 16:36:27;;;;;;;;;;;23.90;43.70;;;;;;1528749;77;1969;-57
2021/11/02 16:38:30;;;;;;;;;;;23.90;43.70;;;;;;1504221;77;1423;-56
2021/11/02 16:40:32;;;;;;;;;;;23.90;43.70;;;;;;1531725;76;954;-55
2021/11/02 16:42:34;;;;;;;;;;;23.90;43.70;;;;;;1531527;76;800;-55
2021/11/02 16:44:38;;;;;;;;;;;23.90;43.70;;;;;;1519818;77;742;-54
2021/11/02 16:46:41;;;;;;;;;;;23.80;43.70;;;;;;1498368;76;1166;-58
2021/11/02 16:48:44;;;;;;;;;;;23.90;43.70;;;;;;1513424;76;707;-56
2021/11/02 16:50:48;;;;;;;;;;;24.00;43.80;;;;;;1529752;77;978;-56